Bookmark and Share
Track history (hours):
 

Star Vega

Last reported at 2014-Apr-16 20:11 UTC. Time now 2014-Apr-17 15:31 UTC.
Position N 37°30' W 000°11'.

Length 189 m; draft 10 m.

Type: Cargo ship. MMSI: 354143000.

NotesDate/timePositionNaut miles runAvg speedWind from/ knotsBaromVisibWave heightAir tempDewpointWater temp
2014-Apr-16 20:11N 37°30' W 000°11'13911.5
2014-Apr-16 08:06N 37°33' E 002°45'5811.7
2014-Apr-16 03:08N 37°34' E 003°58'2111.6
2014-Apr-16 01:19N 37°34' E 004°25'29211.3
2014-Apr-14 23:32N 37°35' E 010°34'10211.3
2014-Apr-14 14:31N 36°59' E 012°33'6811.4
2014-Apr-14 08:33N 36°39' E 013°54'1212.0
2014-Apr-14 07:33N 36°36' E 014°09'46110.7
2014-Apr-12 12:33N 37°40' E 023°42'1111.4
2014-Apr-12 11:33N 37°50' E 023°36'4 4.5
2014-Apr-12 10:33N 37°51' E 023°31'0 0.0
2014-Apr-12 09:24N 37°51' E 023°31'0 0.0
2014-Apr-12 08:30N 37°51' E 023°31'0 0.1
2014-Apr-12 07:33N 37°51' E 023°31'0 0.1
2014-Apr-12 06:24N 37°51' E 023°31'0 0.1
2014-Apr-12 05:33N 37°51' E 023°31'4 3.8
2014-Apr-12 04:33N 37°51' E 023°35'9 9.1
2014-Apr-12 03:33N 37°44' E 023°43'  
2014-Apr-08 22:30N 46°23' E 030°56'1010.8
2014-Apr-08 21:32N 46°33' E 030°58'22 9.4
2014-Apr-08 19:12N 46°36' E 031°30'16 8.7
2014-Apr-08 17:22N 46°37' E 031°53'7 8.4
2014-Apr-08 16:33N 46°44' E 031°56'6 6.2
2014-Apr-08 15:33N 46°50' E 031°56'0 0.1
2014-Apr-08 14:32N 46°50' E 031°56'0 0.0
2014-Apr-08 13:31N 46°50' E 031°56'0 0.0
2014-Apr-08 12:31N 46°50' E 031°56'0 0.1
2014-Apr-08 11:31N 46°50' E 031°56'  

Dump ship's entire track history

sailing weather and tide predictions

Star Vega — 3EVB3 — position and weather